Time;durP1;ratioP1;P1;durP2;ratioP2;P2;SDS_P1;SDS_P2;PMS_P1;PMS_P2;Temp;Humidity;BMP_temperature;BMP_pressure;BME280_temperature;BME280_humidity;BME280_pressure;Samples;Min_cycle;Max_cycle;Signal;HPM_P1;HPM_P2
2022/05/16 00:00:13;;;;;;;535.05;478.80;;;;;;;17.40;46.01;101597.03;685301;28;24357;-70
2022/05/16 00:00:35;;;;;;;538.25;481.98;;;;;;;17.39;46.01;101598.06;684806;28;44284;-71
2022/05/16 00:00:56;;;;;;;535.03;478.63;;;;;;;17.39;46.02;101606.25;684243;28;45222;-71
2022/05/16 00:01:17;;;;;;;536.67;480.17;;;;;;;17.37;46.44;101605.63;685361;28;21531;-71
2022/05/16 00:01:38;;;;;;;547.38;490.58;;;;;;;17.34;46.47;101601.41;684079;28;22405;-70
2022/05/16 00:01:59;;;;;;;539.90;483.50;;;;;;;17.32;46.14;101605.38;685349;28;22489;-70
2022/05/16 00:02:22;;;;;;;541.50;485.15;;;;;;;17.33;46.64;101601.59;685701;28;21735;-70
2022/05/16 00:02:43;;;;;;;549.63;493.10;;;;;;;17.32;46.60;101600.78;684451;28;46322;-70
2022/05/16 00:03:06;;;;;;;560.00;503.17;;;;;;;17.32;46.49;101603.50;684085;28;44436;-70
2022/05/16 00:03:28;;;;;;;548.63;491.98;;;;;;;17.30;46.39;101600.09;683911;28;66834;-70
2022/05/16 00:03:49;;;;;;;544.60;488.15;;;;;;;17.25;46.58;101595.25;684768;28;46277;-69
2022/05/16 00:04:10;;;;;;;554.55;497.85;;;;;;;17.28;46.35;101604.94;685300;28;23447;-71
2022/05/16 00:04:32;;;;;;;550.88;494.27;;;;;;;17.31;46.29;101601.81;685632;28;22360;-70
2022/05/16 00:04:54;;;;;;;549.67;493.08;;;;;;;17.29;46.57;101604.72;684764;28;46247;-70
2022/05/16 00:05:16;;;;;;;556.63;499.92;;;;;;;17.31;46.52;101606.44;684779;28;46680;-71
2022/05/16 00:05:37;;;;;;;550.13;493.60;;;;;;;17.31;46.62;101609.16;685503;28;22406;-70
2022/05/16 00:05:58;;;;;;;546.55;490.02;;;;;;;17.27;46.20;101593.19;684179;28;46427;-70
2022/05/16 00:06:21;;;;;;;549.72;493.10;;;;;;;17.30;46.25;101600.09;685409;28;22397;-70
2022/05/16 00:06:42;;;;;;;550.53;493.92;;;;;;;17.29;46.37;101595.72;683420;28;70312;-70
2022/05/16 00:07:03;;;;;;;544.28;487.83;;;;;;;17.28;46.71;101599.47;685614;28;22365;-70
2022/05/16 00:07:24;;;;;;;547.92;491.33;;;;;;;17.27;46.62;101600.50;685400;28;22395;-70
2022/05/16 00:07:47;;;;;;;556.97;500.35;;;;;;;17.25;46.64;101597.97;685378;28;20548;-70
2022/05/16 00:08:09;;;;;;;561.58;504.80;;;;;;;17.27;46.61;101597.78;683842;28;69333;-70
2022/05/16 00:08:30;;;;;;;543.92;487.38;;;;;;;17.26;46.70;101602.41;684802;28;21541;-70
2022/05/16 00:08:51;;;;;;;547.20;490.65;;;;;;;17.25;46.40;101602.59;685797;28;21668;-70
2022/05/16 00:09:13;;;;;;;547.63;491.13;;;;;;;17.24;46.54;101598.16;684460;28;46151;-71
2022/05/16 00:09:35;;;;;;;547.70;490.95;;;;;;;17.24;46.72;101601.78;684163;28;43976;-70
2022/05/16 00:09:56;;;;;;;559.78;502.77;;;;;;;17.21;46.56;101593.97;684616;28;45120;-70
2022/05/16 00:10:17;;;;;;;558.35;501.42;;;;;;;17.24;46.67;101598.16;684955;28;22364;-70
2022/05/16 00:10:39;;;;;;;552.63;495.73;;;;;;;17.25;46.79;101605.34;685775;28;22364;-69
2022/05/16 00:11:00;;;;;;;549.30;492.75;;;;;;;17.24;46.40;101598.16;684604;28;46230;-70
2022/05/16 00:11:21;;;;;;;545.38;488.95;;;;;;;17.18;46.78;101590.78;685356;28;22214;-70
2022/05/16 00:11:42;;;;;;;553.80;497.00;;;;;;;17.24;46.50;101609.09;684712;28;21486;-70
2022/05/16 00:12:05;;;;;;;551.63;494.90;;;;;;;17.24;46.58;101600.91;685796;28;22389;-70
2022/05/16 00:12:27;;;;;;;547.78;490.98;;;;;;;17.21;46.42;101598.56;684004;28;44370;-70
2022/05/16 00:12:49;;;;;;;552.08;495.40;;;;;;;17.24;46.35;101600.91;683832;28;68995;-71
2022/05/16 00:13:10;;;;;;;553.92;497.20;;;;;;;17.25;46.54;101597.13;684100;28;44411;-70
2022/05/16 00:13:31;;;;;;;555.55;498.75;;;;;;;17.23;46.43;101597.34;685405;28;23589;-70
2022/05/16 00:13:53;;;;;;;555.70;498.90;;;;;;;17.22;46.78;101595.66;685405;28;22406;-70
2022/05/16 00:14:14;;;;;;;543.25;486.90;;;;;;;17.23;46.36;101602.81;684102;28;46308;-70
2022/05/16 00:14:37;;;;;;;544.47;488.10;;;;;;;17.21;46.49;101599.44;685494;28;23508;-70
2022/05/16 00:14:58;;;;;;;547.63;491.13;;;;;;;17.24;46.47;101603.63;683676;28;67237;-70
2022/05/16 00:15:21;;;;;;;545.90;489.42;;;;;;;17.22;46.65;101592.09;685150;28;21592;-70
2022/05/16 00:15:43;;;;;;;545.53;488.92;;;;;;;17.21;46.63;101596.72;683335;28;92040;-70
2022/05/16 00:16:04;;;;;;;548.85;492.27;;;;;;;17.18;46.38;101598.97;684930;28;23406;-70
2022/05/16 00:16:28;;;;;;;555.67;498.92;;;;;;;17.19;46.86;101597.94;683016;28;67357;-69
2022/05/16 00:16:49;;;;;;;561.30;504.52;;;;;;;17.18;46.70;101596.25;685842;28;22415;-70
2022/05/16 00:17:12;;;;;;;553.13;496.50;;;;;;;17.17;46.78;101591.84;685376;28;24186;-70
2022/05/16 00:17:33;;;;;;;540.40;483.88;;;;;;;17.17;46.90;101597.31;682279;28;91082;-69
2022/05/16 00:17:54;;;;;;;558.03;501.05;;;;;;;17.16;46.61;101587.41;684778;28;23343;-70
2022/05/16 00:18:15;;;;;;;547.55;490.92;;;;;;;17.10;46.71;101591.81;685470;28;22440;-70
2022/05/16 00:18:37;;;;;;;552.17;495.30;;;;;;;17.14;47.03;101594.97;685434;28;23424;-69
2022/05/16 00:18:58;;;;;;;553.75;496.95;;;;;;;17.12;46.93;101589.72;684562;28;46269;-69
2022/05/16 00:19:20;;;;;;;554.78;498.02;;;;;;;17.10;46.80;101592.66;685103;28;21270;-69
2022/05/16 00:19:41;;;;;;;546.47;489.70;;;;;;;17.10;46.75;101597.28;685067;28;22438;-71
2022/05/16 00:20:03;;;;;;;548.45;491.77;;;;;;;17.09;46.79;101587.38;684927;28;45316;-70
2022/05/16 00:20:25;;;;;;;545.65;489.08;;;;;;;17.11;46.79;101596.22;686407;28;930;-69
2022/05/16 00:20:47;;;;;;;545.97;489.38;;;;;;;17.13;46.86;101596.84;684425;28;46517;-70
2022/05/16 00:21:08;;;;;;;538.05;481.65;;;;;;;17.14;47.11;101593.09;684891;28;22393;-70
2022/05/16 00:21:30;;;;;;;552.90;496.20;;;;;;;17.11;46.82;101591.63;684317;28;22417;-70
2022/05/16 00:21:52;;;;;;;559.17;502.27;;;;;;;17.10;46.68;101598.09;683835;28;67289;-70
2022/05/16 00:22:13;;;;;;;550.42;493.63;;;;;;;17.13;46.94;101599.56;684476;28;46208;-70
2022/05/16 00:22:35;;;;;;;547.22;490.52;;;;;;;17.13;46.88;101599.56;684593;28;22364;-70
2022/05/16 00:22:56;;;;;;;557.35;500.65;;;;;;;17.16;46.85;101601.91;685322;28;22398;-70
2022/05/16 00:23:18;;;;;;;552.80;496.10;;;;;;;17.07;47.07;101586.75;685110;28;24567;-70
2022/05/16 00:23:39;;;;;;;546.97;490.38;;;;;;;17.10;47.04;101594.53;684714;28;46318;-70
2022/05/16 00:24:00;;;;;;;539.85;483.55;;;;;;;17.12;47.04;101600.63;685739;28;22216;-70
2022/05/16 00:24:26;;;;;;;543.20;486.65;;;;;;;17.11;47.05;101599.81;685018;28;23492;-70
2022/05/16 00:24:48;;;;;;;559.25;502.35;;;;;;;17.11;47.08;101602.53;681429;28;137725;-70
2022/05/16 00:25:11;;;;;;;548.15;491.50;;;;;;;17.10;46.79;101592.66;684749;28;44155;-71
2022/05/16 00:25:32;;;;;;;545.80;489.30;;;;;;;17.10;46.98;101598.09;683034;28;92103;-70
2022/05/16 00:25:53;;;;;;;553.38;496.63;;;;;;;17.10;46.96;101600.00;683729;28;46467;-70
2022/05/16 00:26:16;;;;;;;543.15;486.48;;;;;;;17.09;46.68;101592.84;685081;28;21361;-71
2022/05/16 00:26:39;;;;;;;552.42;495.48;;;;;;;17.09;46.80;101588.22;681182;28;45805;-70
2022/05/16 00:27:00;;;;;;;543.30;486.77;;;;;;;17.06;46.83;101588.63;680824;28;92369;-70
2022/05/16 00:27:21;;;;;;;556.20;499.42;;;;;;;17.08;46.96;101594.75;680137;28;23477;-70
2022/05/16 00:27:44;;;;;;;560.78;503.75;;;;;;;17.07;46.86;101581.28;681851;28;1836;-70
2022/05/16 00:28:05;;;;;;;549.40;492.80;;;;;;;17.06;46.84;101593.25;680522;28;44384;-71
2022/05/16 00:28:26;;;;;;;553.28;496.52;;;;;;;17.05;46.94;101591.53;682156;28;25067;-70
2022/05/16 00:28:47;;;;;;;554.40;497.55;;;;;;;17.01;47.01;101587.53;680120;28;46630;-70
2022/05/16 00:29:09;;;;;;;547.97;491.40;;;;;;;17.02;46.90;101589.22;683450;28;21563;-69
2022/05/16 00:29:30;;;;;;;551.97;495.23;;;;;;;17.01;47.22;101593.00;683309;28;46318;-70
2022/05/16 00:29:51;;;;;;;550.50;493.63;;;;;;;16.99;47.04;101597.78;685110;28;22215;-70
2022/05/16 00:30:16;;;;;;;564.35;507.38;;;;;;;16.97;47.21;101594.44;685515;28;21507;-70
2022/05/16 00:30:37;;;;;;;564.28;507.27;;;;;;;16.92;47.30;101587.69;683036;28;90338;-69
2022/05/16 00:30:58;;;;;;;553.05;496.35;;;;;;;16.95;47.20;101597.34;684919;28;24120;-70
2022/05/16 00:31:19;;;;;;;550.27;493.60;;;;;;;16.91;47.02;101587.88;685282;28;22345;-70
2022/05/16 00:31:40;;;;;;;548.78;492.20;;;;;;;16.90;47.15;101589.78;684181;28;44328;-69
2022/05/16 00:32:02;;;;;;;553.70;497.00;;;;;;;16.87;47.38;101590.16;685444;28;22550;-70
2022/05/16 00:32:23;;;;;;;554.53;497.80;;;;;;;16.83;47.32;101585.28;684132;28;46379;-70
2022/05/16 00:32:45;;;;;;;552.45;495.85;;;;;;;16.87;47.35;101589.34;685341;28;23505;-70
2022/05/16 00:33:07;;;;;;;557.10;500.42;;;;;;;16.87;47.49;101590.16;685538;28;22390;-70
2022/05/16 00:33:28;;;;;;;561.55;504.75;;;;;;;16.82;47.49;101592.63;685301;28;26791;-70
2022/05/16 00:33:49;;;;;;;554.55;497.92;;;;;;;16.84;47.42;101593.25;686506;28;1343;-70
2022/05/16 00:34:10;;;;;;;552.42;495.88;;;;;;;16.83;47.38;101602.47;685268;28;23262;-70
2022/05/16 00:34:31;;;;;;;543.50;487.20;;;;;;;16.84;47.63;101586.97;684655;28;46423;-70
2022/05/16 00:34:55;;;;;;;542.17;485.98;;;;;;;16.84;47.59;101598.72;684455;28;69361;-70
2022/05/16 00:35:20;;;;;;;550.42;493.92;;;;;;;16.83;47.32;101591.56;684344;28;44351;-70
2022/05/16 00:35:41;;;;;;;556.70;500.02;;;;;;;16.82;47.42;101594.47;682721;28;88872;-70
2022/05/16 00:36:04;;;;;;;554.38;497.80;;;;;;;16.80;47.38;101599.31;685005;28;22455;-70
2022/05/16 00:36:25;;;;;;;553.72;497.00;;;;;;;16.79;47.61;101595.75;684775;28;4639;-70
2022/05/16 00:36:47;;;;;;;558.67;501.77;;;;;;;16.77;47.64;101592.38;685428;28;21524;-70
2022/05/16 00:37:08;;;;;;;537.25;480.98;;;;;;;16.75;47.32;101595.31;683667;28;69443;-70
2022/05/16 00:37:29;;;;;;;533.10;476.92;;;;;;;16.77;47.52;101597.84;684942;28;23536;-70
2022/05/16 00:37:52;;;;;;;546.03;489.45;;;;;;;16.73;47.56;101581.00;685422;28;23284;-70
2022/05/16 00:38:13;;;;;;;553.58;496.73;;;;;;;16.74;47.43;101593.59;684744;28;45220;-69
2022/05/16 00:38:35;;;;;;;555.40;498.40;;;;;;;16.72;47.48;101586.66;683233;28;46185;-70
2022/05/16 00:38:56;;;;;;;545.72;489.10;;;;;;;16.69;47.60;101589.78;682386;28;21249;-70
2022/05/16 00:39:20;;;;;;;539.88;483.48;;;;;;;16.69;47.92;101592.50;682458;28;22412;-69
2022/05/16 00:39:42;;;;;;;540.85;484.10;;;;;;;16.70;48.03;101589.56;678666;28;114908;-70
2022/05/16 00:40:04;;;;;;;523.17;466.85;;;;;;;16.70;47.97;101591.47;682984;28;21262;-70
2022/05/16 00:40:25;;;;;;;519.80;463.75;;;;;;;16.68;48.00;101588.94;681251;28;67311;-71
2022/05/16 00:40:47;;;;;;;519.67;463.60;;;;;;;16.67;47.95;101587.22;683649;28;21320;-70
2022/05/16 00:41:09;;;;;;;526.85;470.58;;;;;;;16.66;47.96;101584.69;684359;28;42700;-70
2022/05/16 00:41:30;;;;;;;538.83;482.17;;;;;;;16.69;47.79;101592.50;684078;28;22410;-70
2022/05/16 00:41:51;;;;;;;548.17;491.42;;;;;;;16.67;47.81;101589.97;685463;28;23507;-70
2022/05/16 00:42:14;;;;;;;539.28;482.75;;;;;;;16.68;47.62;101588.94;684324;28;44357;-70
2022/05/16 00:42:35;;;;;;;548.13;491.33;;;;;;;16.69;47.77;101595.22;683721;28;44156;-70
2022/05/16 00:43:01;;;;;;;554.47;497.75;;;;;;;16.65;47.71;101577.59;685362;28;23479;-70
2022/05/16 00:43:24;;;;;;;543.40;486.88;;;;;;;16.68;47.79;101583.47;681432;28;137953;-70
2022/05/16 00:43:52;;;;;;;559.70;502.80;;;;;;;16.69;47.82;101590.63;682465;28;115147;-70
2022/05/16 00:44:14;;;;;;;542.95;486.33;;;;;;;16.64;47.61;101581.34;681040;28;138022;-70
2022/05/16 00:44:35;;;;;;;548.72;492.02;;;;;;;16.65;48.03;101580.31;684505;28;44873;-71
2022/05/16 00:44:56;;;;;;;538.47;482.10;;;;;;;16.66;47.96;101585.56;685873;28;22401;-70
2022/05/16 00:45:18;;;;;;;556.22;499.33;;;;;;;16.68;47.82;101593.56;684750;28;23685;-70
2022/05/16 00:45:43;;;;;;;558.38;501.48;;;;;;;16.66;48.02;101585.56;684383;28;44483;-70
2022/05/16 00:46:04;;;;;;;550.90;494.17;;;;;;;16.64;47.71;101587.63;682925;28;92380;-70
2022/05/16 00:46:29;;;;;;;538.70;482.23;;;;;;;16.64;48.03;101579.44;684609;28;22235;-70
2022/05/16 00:46:51;;;;;;;551.53;494.77;;;;;;;16.69;47.95;101590.63;681232;28;136445;-70
2022/05/16 00:47:13;;;;;;;563.47;506.27;;;;;;;16.65;47.73;101583.88;683537;28;67452;-70
2022/05/16 00:47:34;;;;;;;565.75;508.48;;;;;;;16.70;47.77;101583.28;684688;28;22419;-70
2022/05/16 00:47:55;;;;;;;554.42;497.58;;;;;;;16.70;47.60;101588.75;684666;28;44378;-69
2022/05/16 00:48:16;;;;;;;563.15;506.15;;;;;;;16.72;48.00;101594.84;685483;28;21503;-69
2022/05/16 00:48:37;;;;;;;555.75;498.95;;;;;;;16.73;47.86;101591.06;685249;28;22462;-69
2022/05/16 00:49:01;;;;;;;545.70;489.10;;;;;;;16.71;47.59;101584.97;685126;28;23819;-69
2022/05/16 00:49:27;;;;;;;558.03;501.08;;;;;;;16.74;47.83;101592.78;683658;28;61479;-70
2022/05/16 00:49:50;;;;;;;547.78;491.15;;;;;;;16.75;47.87;101592.56;683221;28;67369;-70
2022/05/16 00:50:12;;;;;;;553.53;496.83;;;;;;;16.72;47.82;101587.50;683677;28;69430;-70
2022/05/16 00:50:39;;;;;;;534.10;477.83;;;;;;;16.75;47.58;101595.31;684584;28;46316;-70
2022/05/16 00:51:01;;;;;;;542.28;485.77;;;;;;;16.74;47.64;101599.06;680685;28;136061;-70
2022/05/16 00:51:23;;;;;;;547.72;491.10;;;;;;;16.74;47.48;101592.78;684485;28;45254;-70
2022/05/16 00:51:49;;;;;;;556.60;499.73;;;;;;;16.73;47.52;101591.91;682815;28;66501;-70
2022/05/16 00:52:15;;;;;;;566.13;509.02;;;;;;;16.76;47.79;101598.88;681164;28;136189;-70
2022/05/16 00:52:39;;;;;;;557.28;500.30;;;;;;;16.73;48.00;101594.63;681185;28;138588;-70
2022/05/16 00:53:00;;;;;;;562.25;505.15;;;;;;;16.75;47.48;101597.16;682625;28;91887;-70
2022/05/16 00:53:21;;;;;;;559.05;502.05;;;;;;;16.75;47.62;101594.44;685449;28;22415;-70
2022/05/16 00:53:44;;;;;;;546.38;489.77;;;;;;;16.75;47.79;101598.03;685568;28;21401;-70
2022/05/16 00:54:09;;;;;;;549.88;493.13;;;;;;;16.76;47.85;101591.50;682871;28;92161;-70
2022/05/16 00:54:32;;;;;;;534.35;477.95;;;;;;;16.76;47.62;101596.13;682258;28;116023;-70
2022/05/16 00:54:55;;;;;;;546.33;489.70;;;;;;;16.73;47.63;101589.19;682982;28;92176;-70
2022/05/16 00:55:20;;;;;;;542.40;485.83;;;;;;;16.76;47.70;101598.88;684522;28;44373;-70
2022/05/16 00:55:42;;;;;;;528.40;472.02;;;;;;;16.72;47.40;101590.25;681886;28;115983;-70
2022/05/16 00:56:04;;;;;;;551.58;494.75;;;;;;;16.72;47.87;101592.09;683258;28;70301;-70
2022/05/16 00:56:26;;;;;;;542.53;485.83;;;;;;;16.74;47.90;101600.97;684143;28;21550;-70
2022/05/16 00:56:50;;;;;;;539.15;482.55;;;;;;;16.72;47.65;101601.16;684479;28;47562;-70
2022/05/16 00:57:14;;;;;;;530.70;474.35;;;;;;;16.72;47.67;101594.84;682240;28;114904;-69
2022/05/16 00:57:39;;;;;;;529.33;473.00;;;;;;;16.74;47.86;101600.97;683194;28;69532;-70
2022/05/16 00:58:05;;;;;;;530.80;474.58;;;;;;;16.73;47.44;101597.38;682164;28;116127;-70
2022/05/16 00:58:26;;;;;;;522.10;465.90;;;;;;;16.70;47.73;101589.56;681306;28;136178;-70
2022/05/16 00:58:49;;;;;;;523.70;467.63;;;;;;;16.71;47.73;101593.16;686793;28;46276;-71
2022/05/16 00:59:10;;;;;;;508.73;452.95;;;;;;;16.74;47.82;101598.22;686987;28;44378;-70
2022/05/16 00:59:41;;;;;;;523.00;466.67;;;;;;;16.75;47.44;101598.03;687191;28;22391;-70
2022/05/16 01:00:06;;;;;;;525.67;469.35;;;;;;;16.76;47.45;101594.25;683749;28;137478;-70
2022/05/16 01:00:31;;;;;;;529.05;472.73;;;;;;;16.79;47.58;101595.75;684707;28;115169;-70
2022/05/16 01:00:53;;;;;;;520.10;464.08;;;;;;;16.77;47.38;101592.38;681108;28;115776;-70
2022/05/16 01:04:49;;;;;;;532.10;475.80;;;;;;;16.84;47.56;101603.34;677979;28;160590;-70
2022/05/16 01:05:11;;;;;;;537.00;480.60;;;;;;;16.84;47.55;101606.91;679036;28;137653;-70
2022/05/16 01:05:33;;;;;;;526.35;470.25;;;;;;;16.86;47.29;101602.09;682091;28;45182;-70
2022/05/16 01:05:55;;;;;;;527.58;471.38;;;;;;;16.86;47.38;101599.38;683270;28;46227;-70
2022/05/16 01:06:16;;;;;;;521.35;465.23;;;;;;;16.81;47.01;101601.84;684543;28;45253;-70
2022/05/16 01:06:37;;;;;;;524.75;468.55;;;;;;;16.84;47.25;101604.16;684756;28;22349;-70
2022/05/16 01:07:00;;;;;;;518.05;462.02;;;;;;;16.84;47.42;101600.59;685537;28;22394;-69
2022/05/16 01:07:25;;;;;;;521.45;465.05;;;;;;;16.81;47.57;101601.00;683404;28;67457;-70
2022/05/16 01:07:47;;;;;;;519.20;463.10;;;;;;;16.80;47.35;101600.13;681860;28;114291;-70
2022/05/16 01:08:12;;;;;;;519.58;463.50;;;;;;;16.80;47.51;101605.59;684202;28;70302;-71
2022/05/16 01:08:36;;;;;;;525.65;469.38;;;;;;;16.79;47.07;101598.47;682399;28;91557;-70
2022/05/16 01:08:57;;;;;;;533.08;476.58;;;;;;;16.82;47.06;101599.94;682671;28;90322;-70
2022/05/16 01:09:19;;;;;;;531.42;475.00;;;;;;;16.83;47.16;101605.19;684481;28;22200;-70
2022/05/16 01:09:40;;;;;;;536.03;479.38;;;;;;;16.82;47.14;101600.81;683947;28;45252;-69
2022/05/16 01:10:02;;;;;;;521.30;465.02;;;;;;;16.78;47.15;101591.31;685582;28;21532;-70
2022/05/16 01:10:23;;;;;;;521.90;465.80;;;;;;;16.75;47.46;101594.44;684219;28;46348;-69
2022/05/16 01:10:46;;;;;;;519.90;463.88;;;;;;;16.78;47.55;101594.03;684874;28;45183;-70
2022/05/16 01:11:09;;;;;;;522.85;466.65;;;;;;;16.75;47.42;101598.03;684073;28;45209;-70
2022/05/16 01:11:30;;;;;;;525.22;468.73;;;;;;;16.74;47.46;101596.34;682612;28;68304;-70
2022/05/16 01:11:52;;;;;;;523.47;467.20;;;;;;;16.75;47.56;101600.75;685460;28;19751;-70
2022/05/16 01:12:13;;;;;;;524.55;468.45;;;;;;;16.74;47.43;101599.06;684520;28;45184;-70
2022/05/16 01:12:38;;;;;;;535.67;479.38;;;;;;;16.74;47.72;101599.06;685329;28;21526;-71
2022/05/16 01:13:00;;;;;;;532.05;475.77;;;;;;;16.75;47.44;101597.16;682161;28;113523;-70
2022/05/16 01:13:23;;;;;;;536.05;479.73;;;;;;;16.74;47.48;101598.22;682321;28;45310;-70
2022/05/16 01:13:45;;;;;;;539.15;482.80;;;;;;;16.75;47.36;101599.88;682530;28;69415;-70
2022/05/16 01:14:06;;;;;;;537.97;481.63;;;;;;;16.74;47.65;101601.78;684252;28;46443;-70
2022/05/16 01:14:41;;;;;;;552.08;495.45;;;;;;;16.75;47.17;101597.16;684643;28;22412;-70
2022/05/16 01:15:06;;;;;;;535.92;479.55;;;;;;;16.73;47.35;101591.91;681071;28;135632;-70
2022/05/16 01:15:31;;;;;;;529.30;473.17;;;;;;;16.76;47.53;101599.69;682206;28;115117;-70
2022/05/16 01:15:52;;;;;;;535.42;479.08;;;;;;;16.75;47.55;101598.03;681463;28;114504;-70
2022/05/16 01:16:14;;;;;;;552.67;496.00;;;;;;;16.76;47.27;101601.59;685875;28;18050;-70
2022/05/16 01:16:36;;;;;;;549.28;492.58;;;;;;;16.75;47.56;101605.34;684281;28;23791;-70
2022/05/16 01:16:57;;;;;;;539.20;482.63;;;;;;;16.75;47.50;101602.63;684868;28;45269;-70
2022/05/16 01:17:19;;;;;;;537.55;481.05;;;;;;;16.74;47.68;101600.97;684453;28;46630;-70
2022/05/16 01:17:41;;;;;;;545.35;488.63;;;;;;;16.72;47.60;101595.69;684165;28;46363;-70
2022/05/16 01:18:04;;;;;;;545.65;488.98;;;;;;;16.68;47.64;101590.81;685700;28;22452;-69
2022/05/16 01:18:27;;;;;;;537.15;480.70;;;;;;;16.70;47.70;101597.75;683567;28;67591;-70
2022/05/16 01:18:48;;;;;;;541.97;485.48;;;;;;;16.70;47.66;101602.38;683575;28;67447;-70
2022/05/16 01:19:09;;;;;;;543.35;486.83;;;;;;;16.63;47.93;101591.41;685662;28;23736;-70
2022/05/16 01:19:30;;;;;;;551.17;494.35;;;;;;;16.67;47.51;101600.03;684692;28;21550;-70
2022/05/16 01:19:52;;;;;;;553.90;496.88;;;;;;;16.67;47.50;101605.50;684887;28;22385;-70
2022/05/16 01:20:13;;;;;;;547.83;491.23;;;;;;;16.63;47.48;101593.28;683906;28;46393;-70
2022/05/16 01:20:50;;;;;;;547.40;490.80;;;;;;;16.67;47.73;101602.78;685757;28;22471;-70
2022/05/16 01:21:26;;;;;;;569.13;512.03;;;;;;;16.65;47.61;101602.13;681422;28;137264;-70
2022/05/16 01:21:47;;;;;;;552.13;495.33;;;;;;;16.67;47.68;101600.88;680184;28;157424;-70
2022/05/16 01:22:17;;;;;;;544.13;487.65;;;;;;;16.68;47.42;101591.66;685249;28;22274;-70
2022/05/16 01:22:41;;;;;;;550.45;493.67;;;;;;;16.65;47.60;101592.06;680943;28;136098;-70
2022/05/16 01:23:03;;;;;;;536.58;480.10;;;;;;;16.68;47.61;101604.47;682768;28;90342;-70
2022/05/16 01:23:25;;;;;;;549.38;492.58;;;;;;;16.70;47.50;101596.91;684275;28;46303;-70
2022/05/16 01:23:49;;;;;;;548.50;491.90;;;;;;;16.68;47.35;101593.56;686694;28;45252;-70
2022/05/16 01:24:14;;;;;;;553.55;496.85;;;;;;;16.69;47.39;101601.53;685046;28;90844;-70
2022/05/16 01:24:35;;;;;;;549.47;492.73;;;;;;;16.66;47.80;101599.22;684755;28;115121;-70
2022/05/16 01:24:58;;;;;;;550.90;494.15;;;;;;;16.65;47.71;101596.69;687684;28;21362;-70
2022/05/16 01:25:23;;;;;;;552.85;496.05;;;;;;;16.62;47.71;101605.25;686523;28;67477;-70
2022/05/16 01:25:44;;;;;;;546.00;489.42;;;;;;;16.63;47.65;101596.00;683350;28;115053;-70
2022/05/16 01:26:10;;;;;;;544.65;488.05;;;;;;;16.63;47.82;101604.19;684771;28;21522;-71
2022/05/16 01:26:32;;;;;;;552.15;495.30;;;;;;;16.58;47.62;101602.91;680470;28;138135;-70
2022/05/16 01:26:54;;;;;;;554.97;498.10;;;;;;;16.58;47.72;101605.63;684513;28;44422;-70
2022/05/16 01:27:15;;;;;;;563.08;506.00;;;;;;;16.60;47.92;101604.56;685209;28;46380;-70
2022/05/16 01:27:50;;;;;;;560.85;503.95;;;;;;;16.58;48.01;101602.03;685359;28;22403;-70
2022/05/16 01:28:18;;;;;;;556.25;499.45;;;;;;;16.58;47.77;101604.78;681306;28;135022;-70
2022/05/16 01:28:39;;;;;;;544.03;487.40;;;;;;;16.51;47.84;101591.09;681438;28;138753;-70
2022/05/16 01:29:01;;;;;;;531.75;475.52;;;;;;;16.57;47.66;101603.94;685121;28;22528;-70
2022/05/16 01:29:22;;;;;;;541.95;485.27;;;;;;;16.57;48.03;101590.31;684025;28;44323;-70
2022/05/16 01:29:44;;;;;;;552.17;495.25;;;;;;;16.52;47.75;101595.50;684985;28;23519;-70
2022/05/16 01:30:07;;;;;;;548.00;491.30;;;;;;;16.56;47.72;101598.69;686242;28;9449;-70
2022/05/16 01:30:30;;;;;;;552.72;495.98;;;;;;;16.57;47.71;101603.09;683397;28;69376;-70
2022/05/16 01:30:54;;;;;;;543.90;487.30;;;;;;;16.53;47.75;101594.44;683368;28;69344;-70
2022/05/16 01:31:16;;;;;;;536.78;480.45;;;;;;;16.54;47.89;101598.88;682971;28;92209;-70
2022/05/16 01:31:37;;;;;;;537.72;481.20;;;;;;;16.51;47.66;101595.72;683843;28;46471;-70
2022/05/16 01:31:59;;;;;;;537.38;480.98;;;;;;;16.52;47.77;101594.66;684779;28;45331;-70
2022/05/16 01:32:21;;;;;;;541.65;485.02;;;;;;;16.52;47.72;101594.66;684915;28;22391;-70
2022/05/16 01:32:42;;;;;;;537.00;480.50;;;;;;;16.54;47.81;101598.03;684185;28;46297;-70
2022/05/16 01:33:03;;;;;;;537.10;480.77;;;;;;;16.52;47.90;101598.25;685887;28;21534;-70
2022/05/16 01:33:25;;;;;;;538.00;481.58;;;;;;;16.48;47.90;101594.19;685622;28;23565;-70
2022/05/16 01:33:46;;;;;;;530.35;474.05;;;;;;;16.48;47.71;101588.75;684363;28;46269;-69
2022/05/16 01:34:08;;;;;;;534.63;478.35;;;;;;;16.51;48.01;101598.44;685675;28;23464;-70
2022/05/16 01:34:30;;;;;;;535.03;478.73;;;;;;;16.50;48.11;101592.13;683694;28;70015;-71
2022/05/16 01:34:51;;;;;;;526.78;470.52;;;;;;;16.49;47.97;101604.09;684330;28;46330;-71
2022/05/16 01:35:17;;;;;;;529.42;473.05;;;;;;;16.48;47.91;101599.66;685015;28;22388;-70
2022/05/16 01:35:39;;;;;;;535.80;479.30;;;;;;;16.46;48.04;101596.28;681068;28;161036;-70
2022/05/16 01:36:00;;;;;;;532.25;475.65;;;;;;;16.43;48.15;101591.22;683557;28;46291;-70
2022/05/16 01:36:22;;;;;;;545.17;488.52;;;;;;;16.46;47.90;101595.47;685042;28;24332;-70
2022/05/16 01:36:43;;;;;;;550.08;493.30;;;;;;;16.46;47.93;101592.72;683138;28;65883;-70
2022/05/16 01:37:05;;;;;;;537.75;481.25;;;;;;;16.46;48.18;101601.75;687659;28;22387;-70
2022/05/16 01:38:18;;;;;;;547.20;490.52;;;;;;;16.47;48.08;101597.97;687067;28;45281;-70
2022/05/16 01:38:22;;;;;;;539.70;483.15;;;;;;;16.44;48.09;101600.25;683554;28;137712;-70
2022/05/16 01:38:43;;;;;;;538.90;482.40;;;;;;;16.39;47.95;101593.50;683852;28;136295;-70
2022/05/16 01:39:04;;;;;;;537.33;480.77;;;;;;;16.44;48.00;101602.97;686303;28;23284;-70
2022/05/16 01:39:26;;;;;;;527.40;471.20;;;;;;;16.41;48.01;101596.03;685365;28;22296;-69
2022/05/16 01:39:47;;;;;;;524.03;467.60;;;;;;;16.42;48.23;101596.88;683940;28;44320;-70
2022/05/16 01:40:09;;;;;;;529.58;473.05;;;;;;;16.42;47.99;101594.97;684591;28;24479;-71
2022/05/16 01:40:30;;;;;;;528.42;472.08;;;;;;;16.42;48.27;101594.16;684670;28;47472;-70
2022/05/16 01:40:54;;;;;;;528.80;472.50;;;;;;;16.43;48.28;101593.97;683953;28;42575;-71
2022/05/16 01:41:17;;;;;;;532.75;476.40;;;;;;;16.44;48.13;101597.50;684152;28;69430;-70
2022/05/16 01:41:38;;;;;;;528.10;471.90;;;;;;;16.43;48.11;101593.97;683016;28;69412;-70
2022/05/16 01:41:59;;;;;;;522.67;466.45;;;;;;;16.43;48.32;101593.97;685084;28;23641;-70
2022/05/16 01:42:21;;;;;;;522.15;465.85;;;;;;;16.40;48.44;101584.28;685082;28;22407;-71
2022/05/16 01:42:42;;;;;;;513.45;457.40;;;;;;;16.36;48.04;101583.00;683813;28;46395;-70
2022/05/16 01:43:04;;;;;;;516.60;460.42;;;;;;;16.40;48.07;101586.16;685361;28;22471;-70
2022/05/16 01:43:27;;;;;;;512.28;456.38;;;;;;;16.42;48.38;101592.25;685429;28;22646;-70
2022/05/16 01:43:54;;;;;;;515.13;459.27;;;;;;;16.41;48.25;101590.59;683718;28;70298;-70
2022/05/16 01:44:15;;;;;;;513.63;457.75;;;;;;;16.42;48.03;101589.53;680671;28;138370;-70
2022/05/16 01:44:36;;;;;;;509.80;453.88;;;;;;;16.42;48.41;101588.69;685076;28;21460;-71
2022/05/16 01:44:57;;;;;;;500.77;444.48;;;;;;;16.44;47.84;101589.34;684928;28;23509;-70